Time;durP1;ratioP1;P1;durP2;ratioP2;P2;SDS_P1;SDS_P2;PMS_P1;PMS_P2;Temp;Humidity;BMP_temperature;BMP_pressure;BME280_temperature;BME280_humidity;BME280_pressure;Samples;Min_cycle;Max_cycle;Signal;HPM_P1;HPM_P2
2022/04/20 00:00:34;;;;;;;0.30;0.30;;;9.00;58.40;;;;;;5054768;28;20880;-69
2022/04/20 00:02:59;;;;;;;0.30;0.30;;;8.80;58.50;;;;;;5053650;28;20420;-69
2022/04/20 00:05:25;;;;;;;0.30;0.30;;;8.80;59.20;;;;;;5054804;28;20185;-70
2022/04/20 00:07:51;;;;;;;2.40;2.30;;;8.70;59.10;;;;;;5054652;28;20416;-70
2022/04/20 00:10:17;;;;;;;0.30;0.30;;;8.80;59.00;;;;;;5053263;28;20415;-70
2022/04/20 00:12:43;;;;;;;1.23;1.17;;;8.80;60.20;;;;;;5054782;28;20450;-69
2022/04/20 00:15:08;;;;;;;0.30;0.30;;;8.60;60.80;;;;;;5054750;28;20215;-70
2022/04/20 00:17:34;;;;;;;0.30;0.30;;;8.60;61.40;;;;;;5053357;28;20181;-70
2022/04/20 00:20:00;;;;;;;0.30;0.30;;;8.50;61.50;;;;;;5054334;28;20403;-70
2022/04/20 00:22:26;;;;;;;0.30;0.30;;;8.50;62.50;;;;;;5054427;28;20638;-70
2022/04/20 00:24:51;;;;;;;0.40;0.40;;;8.40;63.20;;;;;;5054286;28;20189;-70
2022/04/20 00:27:17;;;;;;;0.40;0.40;;;8.40;63.20;;;;;;5053810;28;20295;-69
2022/04/20 00:29:42;;;;;;;0.30;0.30;;;8.40;62.70;;;;;;5054185;28;20752;-69
2022/04/20 00:32:08;;;;;;;0.33;0.33;;;8.40;63.00;;;;;;5054227;28;20223;-70
2022/04/20 00:34:34;;;;;;;0.40;0.40;;;8.40;63.20;;;;;;5054188;28;20212;-70
2022/04/20 00:37:00;;;;;;;0.30;0.30;;;8.30;63.50;;;;;;5054377;28;20535;-70
2022/04/20 00:39:25;;;;;;;0.30;0.30;;;8.30;64.10;;;;;;5054095;28;20208;-70
2022/04/20 00:41:54;;;;;;;0.30;0.30;;;8.30;63.40;;;;;;5054079;28;20179;-69
2022/04/20 00:44:21;;;;;;;0.30;0.30;;;8.30;63.80;;;;;;5054158;28;20252;-69
2022/04/20 00:46:48;;;;;;;0.40;0.40;;;8.20;64.90;;;;;;5054210;28;20184;-70
2022/04/20 00:49:14;;;;;;;0.30;0.30;;;8.20;65.10;;;;;;5054017;28;20413;-70
2022/04/20 00:52:09;;;;;;;0.30;0.30;;;8.20;64.60;;;;;;5054143;28;20168;-70
2022/04/20 00:54:35;;;;;;;0.40;0.40;;;8.20;64.90;;;;;;5045062;28;20577;-69
2022/04/20 00:57:00;;;;;;;0.30;0.30;;;8.20;65.60;;;;;;5054012;28;20187;-70
2022/04/20 00:59:27;;;;;;;0.30;0.30;;;8.20;66.60;;;;;;5053760;28;20279;-70
2022/04/20 01:01:53;;;;;;;0.30;0.30;;;8.20;65.80;;;;;;5053666;28;20640;-70
2022/04/20 01:04:20;;;;;;;0.30;0.30;;;8.00;65.70;;;;;;5053789;28;20255;-70
2022/04/20 01:06:46;;;;;;;0.30;0.30;;;8.00;66.60;;;;;;5053811;28;20415;-70
2022/04/20 01:09:12;;;;;;;0.40;0.40;;;8.00;68.50;;;;;;5053798;28;20193;-70
2022/04/20 01:11:38;;;;;;;0.50;0.50;;;7.90;69.50;;;;;;5053399;28;20658;-70
2022/04/20 01:14:05;;;;;;;0.40;0.40;;;7.80;70.60;;;;;;5053529;28;20256;-70
2022/04/20 01:16:30;;;;;;;0.80;0.80;;;7.80;70.70;;;;;;5053598;28;20530;-70
2022/04/20 01:18:56;;;;;;;0.30;0.30;;;7.80;70.50;;;;;;5053481;28;20189;-70
2022/04/20 01:21:23;;;;;;;0.30;0.30;;;7.80;70.80;;;;;;5053396;28;20552;-69
2022/04/20 01:23:49;;;;;;;0.40;0.40;;;7.70;71.90;;;;;;5053719;28;20260;-70
2022/04/20 01:26:15;;;;;;;0.35;0.35;;;7.70;72.80;;;;;;5053582;28;20200;-69
2022/04/20 01:28:44;;;;;;;0.30;0.30;;;7.70;72.30;;;;;;5053335;28;20592;-69
2022/04/20 01:31:15;;;;;;;0.30;0.30;;;7.80;73.40;;;;;;5053143;28;20812;-69
2022/04/20 01:33:41;;;;;;;0.30;0.30;;;7.70;72.30;;;;;;5053517;28;20240;-70
2022/04/20 01:36:07;;;;;;;0.40;0.40;;;7.80;73.20;;;;;;5053311;28;20171;-69
2022/04/20 01:38:33;;;;;;;0.30;0.30;;;7.80;72.80;;;;;;5059447;28;20193;-69
2022/04/20 01:40:58;;;;;;;0.40;0.40;;;7.90;72.80;;;;;;5059808;28;20485;-70
2022/04/20 01:43:24;;;;;;;0.30;0.30;;;7.80;72.50;;;;;;5060350;28;20251;-70
2022/04/20 01:45:50;;;;;;;0.40;0.40;;;7.80;72.50;;;;;;5059860;28;20169;-69
2022/04/20 01:48:15;;;;;;;1.37;1.27;;;7.90;72.30;;;;;;5059896;28;20431;-69
2022/04/20 01:53:26;;;;;;;0.30;0.30;;;7.90;71.20;;;;;;5060216;28;20209;-70
2022/04/20 01:55:51;;;;;;;0.30;0.30;;;7.90;70.70;;;;;;5059819;28;20625;-69
2022/04/20 01:58:17;;;;;;;0.40;0.40;;;8.00;69.60;;;;;;5059820;28;20195;-69
2022/04/20 02:00:43;;;;;;;0.30;0.30;;;8.10;69.60;;;;;;5059875;28;20797;-70
2022/04/20 02:03:08;;;;;;;0.30;0.30;;;8.10;68.80;;;;;;5059956;28;20173;-70
2022/04/20 02:05:34;;;;;;;0.30;0.30;;;8.20;69.10;;;;;;5059917;28;20637;-70
2022/04/20 02:07:59;;;;;;;0.30;0.30;;;8.20;68.60;;;;;;5059645;28;20192;-70
2022/04/20 02:10:25;;;;;;;0.30;0.30;;;8.10;68.30;;;;;;5059811;28;20174;-69
2022/04/20 02:12:51;;;;;;;0.30;0.30;;;8.10;68.00;;;;;;5059809;28;20210;-69
2022/04/20 02:15:16;;;;;;;0.30;0.30;;;8.10;70.20;;;;;;5059750;28;20168;-70
2022/04/20 02:17:42;;;;;;;0.30;0.30;;;8.10;69.00;;;;;;5059768;28;20166;-70
2022/04/20 02:20:09;;;;;;;0.30;0.30;;;8.20;68.40;;;;;;5059490;28;20642;-69
2022/04/20 02:22:34;;;;;;;0.30;0.30;;;8.20;68.30;;;;;;5059467;28;20423;-70
2022/04/20 02:25:00;;;;;;;0.30;0.30;;;8.20;68.90;;;;;;5059800;28;20174;-69
2022/04/20 02:27:26;;;;;;;0.30;0.30;;;8.20;68.70;;;;;;5059638;28;20172;-69
2022/04/20 02:29:52;;;;;;;0.30;0.30;;;8.20;69.00;;;;;;5059307;28;20197;-69
2022/04/20 02:32:18;;;;;;;0.30;0.30;;;8.20;69.40;;;;;;5059562;28;20177;-69
2022/04/20 02:34:43;;;;;;;0.30;0.30;;;8.10;70.20;;;;;;5060137;28;20625;-70
2022/04/20 02:37:09;;;;;;;0.30;0.30;;;8.10;70.50;;;;;;5059357;28;20177;-69
2022/04/20 02:39:36;;;;;;;0.30;0.30;;;8.10;70.50;;;;;;5059355;28;20189;-69
2022/04/20 02:42:06;;;;;;;0.40;0.40;;;8.00;69.60;;;;;;5059269;28;20227;-69
2022/04/20 02:44:32;;;;;;;0.30;0.30;;;8.10;68.90;;;;;;5059544;28;20168;-69
2022/04/20 02:46:57;;;;;;;0.30;0.30;;;8.00;70.00;;;;;;5059498;28;20173;-69
2022/04/20 02:49:23;;;;;;;0.30;0.30;;;8.00;70.40;;;;;;5056000;28;20196;-69
2022/04/20 02:51:49;;;;;;;0.40;0.40;;;8.00;68.80;;;;;;5056041;28;20464;-70
2022/04/20 02:54:15;;;;;;;0.30;0.30;;;8.00;69.80;;;;;;5056124;28;20200;-69
2022/04/20 02:56:41;;;;;;;0.40;0.40;;;8.00;70.60;;;;;;5054874;28;20222;-69
2022/04/20 02:59:06;;;;;;;0.40;0.40;;;8.00;70.60;;;;;;5055983;28;20616;-69
2022/04/20 03:01:32;;;;;;;0.40;0.40;;;7.80;71.30;;;;;;5056015;28;20177;-70
2022/04/20 03:03:59;;;;;;;0.30;0.30;;;7.90;71.50;;;;;;5056142;28;20689;-70
2022/04/20 03:06:25;;;;;;;0.40;0.40;;;7.80;72.40;;;;;;5055920;28;20183;-69
2022/04/20 03:08:51;;;;;;;0.30;0.30;;;7.80;71.60;;;;;;5055823;28;20647;-69
2022/04/20 03:11:17;;;;;;;0.30;0.30;;;7.70;72.30;;;;;;5054455;28;20204;-70
2022/04/20 03:13:42;;;;;;;0.33;0.33;;;7.70;73.30;;;;;;5054584;28;20469;-70
2022/04/20 03:16:08;;;;;;;0.30;0.30;;;7.60;74.40;;;;;;5055997;28;20168;-70
2022/04/20 03:18:34;;;;;;;0.40;0.40;;;7.50;75.10;;;;;;5055850;28;20188;-69
2022/04/20 03:21:02;;;;;;;0.30;0.30;;;7.40;74.50;;;;;;5055379;28;20541;-69
2022/04/20 03:23:29;;;;;;;0.30;0.30;;;7.40;75.10;;;;;;5056056;28;20176;-69
2022/04/20 03:25:55;;;;;;;0.30;0.30;;;7.20;76.10;;;;;;5055606;28;20628;-69
2022/04/20 03:28:21;;;;;;;0.37;0.37;;;7.20;77.30;;;;;;5055576;28;20188;-69
2022/04/20 03:30:47;;;;;;;0.30;0.30;;;7.20;78.30;;;;;;5055359;28;20416;-70
2022/04/20 03:33:13;;;;;;;0.40;0.40;;;7.20;79.20;;;;;;5055528;28;20200;-70
2022/04/20 03:35:39;;;;;;;0.30;0.30;;;7.10;79.80;;;;;;5055385;28;20222;-69
2022/04/20 03:38:08;;;;;;;0.40;0.40;;;7.00;80.70;;;;;;5055302;28;20514;-69
2022/04/20 03:40:34;;;;;;;0.30;0.30;;;6.90;80.00;;;;;;5055186;28;20178;-69
2022/04/20 03:43:00;;;;;;;0.30;0.30;;;7.00;81.00;;;;;;5055374;28;20200;-69
2022/04/20 03:45:25;;;;;;;0.40;0.40;;;6.90;80.20;;;;;;5055178;28;20239;-69
2022/04/20 03:47:51;;;;;;;1.37;1.27;;;6.90;81.20;;;;;;5055298;28;20413;-69
2022/04/20 03:50:17;;;;;;;0.40;0.40;;;6.90;81.30;;;;;;5055390;28;20207;-70
2022/04/20 03:52:43;;;;;;;0.40;0.40;;;6.70;80.40;;;;;;5054991;28;20282;-69
2022/04/20 03:55:09;;;;;;;0.30;0.30;;;6.80;81.60;;;;;;5055130;28;20660;-69
2022/04/20 03:57:34;;;;;;;0.30;0.30;;;6.70;83.20;;;;;;5055143;28;20254;-70
2022/04/20 04:00:01;;;;;;;0.30;0.30;;;6.70;83.30;;;;;;5054586;28;20425;-70
2022/04/20 04:02:26;;;;;;;0.30;0.30;;;6.70;83.10;;;;;;5054965;28;20166;-69
2022/04/20 04:04:52;;;;;;;0.40;0.40;;;6.60;82.50;;;;;;5055044;28;20512;-70
2022/04/20 04:07:17;;;;;;;0.37;0.37;;;6.60;82.90;;;;;;5055184;28;20570;-69
2022/04/20 04:09:43;;;;;;;0.33;0.33;;;6.60;82.70;;;;;;5054653;28;20178;-69
2022/04/20 04:12:09;;;;;;;0.30;0.30;;;6.60;82.80;;;;;;5054915;28;20167;-69
2022/04/20 04:14:38;;;;;;;0.30;0.30;;;6.70;81.90;;;;;;5054722;28;20242;-69
2022/04/20 04:17:04;;;;;;;0.30;0.30;;;6.70;81.70;;;;;;5055057;28;20263;-69
2022/04/20 04:19:30;;;;;;;0.30;0.30;;;6.70;81.40;;;;;;5054614;28;20277;-69
2022/04/20 04:21:56;;;;;;;0.30;0.30;;;6.80;82.00;;;;;;5054265;28;20426;-69
2022/04/20 04:24:37;;;;;;;0.37;0.37;;;6.80;82.50;;;;;;5054669;28;20175;-70
2022/04/20 04:27:05;;;;;;;0.40;0.40;;;6.70;82.90;;;;;;5054631;28;20398;-70
2022/04/20 04:29:31;;;;;;;0.30;0.30;;;6.70;83.00;;;;;;5054273;28;20568;-70
2022/04/20 04:31:58;;;;;;;0.32;0.32;;;6.70;83.40;;;;;;5054164;28;20560;-70
2022/04/20 04:34:24;;;;;;;0.40;0.40;;;6.80;90.20;;;;;;5052559;28;20597;-72
2022/04/20 04:36:54;;;;;;;0.37;0.37;;;7.50;96.60;;;;;;5054007;28;20167;-73
2022/04/20 04:39:21;;;;;;;0.30;0.30;;;8.50;94.50;;;;;;5054242;28;20277;-68
2022/04/20 04:41:48;;;;;;;5.28;1.40;;;9.60;91.00;;;;;;5054243;28;20170;-70
2022/04/20 04:44:19;;;;;;;0.30;0.30;;;10.40;83.80;;;;;;5054259;28;20216;-69
2022/04/20 04:49:31;;;;;;;0.40;0.40;;;10.00;68.70;;;;;;5054304;28;20565;-69
2022/04/20 04:51:58;;;;;;;0.30;0.30;;;9.50;71.30;;;;;;5053951;28;20178;-71
2022/04/20 04:54:24;;;;;;;0.30;0.30;;;9.10;71.40;;;;;;5054276;28;20205;-70
2022/04/20 04:56:50;;;;;;;0.32;0.32;;;8.60;73.10;;;;;;5053889;28;20254;-71
2022/04/20 04:59:16;;;;;;;0.30;0.30;;;8.20;75.70;;;;;;5052196;28;20282;-71
2022/04/20 05:01:42;;;;;;;0.40;0.40;;;8.00;77.40;;;;;;5053424;28;20564;-71
2022/04/20 05:04:08;;;;;;;0.60;0.60;;;7.70;78.90;;;;;;5053863;28;20185;-71
2022/04/20 05:06:34;;;;;;;0.30;0.30;;;7.60;79.10;;;;;;5053839;28;20563;-71
2022/04/20 05:08:59;;;;;;;0.30;0.30;;;7.40;79.70;;;;;;5053625;28;20435;-70
2022/04/20 05:11:25;;;;;;;0.30;0.30;;;7.40;79.40;;;;;;5053040;28;20180;-70
2022/04/20 05:13:51;;;;;;;0.30;0.30;;;7.40;79.60;;;;;;5053482;28;20287;-70
2022/04/20 05:16:17;;;;;;;0.30;0.30;;;7.40;80.10;;;;;;5053751;28;20210;-70
2022/04/20 05:18:42;;;;;;;0.30;0.30;;;7.30;79.90;;;;;;5053692;28;20252;-70
2022/04/20 05:21:08;;;;;;;0.30;0.30;;;7.40;80.50;;;;;;5052863;28;20161;-70
2022/04/20 05:23:33;;;;;;;0.30;0.30;;;7.30;82.20;;;;;;5053721;28;20612;-70
2022/04/20 05:25:59;;;;;;;0.30;0.30;;;7.40;82.00;;;;;;5053657;28;20206;-70
2022/04/20 05:28:25;;;;;;;0.30;0.30;;;7.50;81.60;;;;;;5053378;28;20617;-70
2022/04/20 05:30:50;;;;;;;0.40;0.40;;;7.70;81.30;;;;;;5053510;28;20668;-70
2022/04/20 05:33:16;;;;;;;0.37;0.37;;;8.10;81.00;;;;;;5053435;28;20240;-71
2022/04/20 05:35:42;;;;;;;0.30;0.30;;;8.60;80.10;;;;;;5050903;28;20165;-70
2022/04/20 05:43:36;;;;;;;0.30;0.30;;;9.40;76.20;;;;;;5051704;28;20264;-70
2022/04/20 05:46:03;;;;;;;0.40;0.40;;;10.20;73.80;;;;;;5052097;28;20205;-71
2022/04/20 05:48:28;;;;;;;0.40;0.40;;;11.00;68.60;;;;;;5053226;28;20417;-71
2022/04/20 05:50:54;;;;;;;0.30;0.30;;;11.80;68.60;;;;;;5053037;28;20241;-71
2022/04/20 05:53:20;;;;;;;0.30;0.30;;;12.90;63.80;;;;;;5053301;28;20196;-70
2022/04/20 05:55:46;;;;;;;0.30;0.30;;;13.80;58.50;;;;;;5052985;28;20164;-71
2022/04/20 05:58:11;;;;;;;0.30;0.30;;;15.20;58.00;;;;;;5052869;28;20190;-71
2022/04/20 06:00:37;;;;;;;0.30;0.30;;;16.30;53.60;;;;;;5050669;28;20400;-72
2022/04/20 06:03:03;;;;;;;0.30;0.30;;;16.80;49.00;;;;;;5053798;28;20245;-71
2022/04/20 06:05:28;;;;;;;0.30;0.30;;;17.20;48.00;;;;;;5052193;28;20170;-71
2022/04/20 06:07:55;;;;;;;0.30;0.30;;;17.80;46.00;;;;;;5050464;28;20254;-72
2022/04/20 06:10:21;;;;;;;0.30;0.30;;;18.70;43.60;;;;;;5052208;28;20173;-72
2022/04/20 06:12:46;;;;;;;0.40;0.40;;;20.00;42.90;;;;;;5053390;28;20446;-71
2022/04/20 06:15:12;;;;;;;1.70;0.97;;;21.20;39.40;;;;;;5053428;28;20174;-72
2022/04/20 06:17:38;;;;;;;0.30;0.30;;;22.00;37.20;;;;;;5053563;28;20172;-72
2022/04/20 06:20:05;;;;;;;0.37;0.37;;;21.80;36.00;;;;;;5052177;28;20169;-72
2022/04/20 06:22:30;;;;;;;1.27;1.27;;;21.50;36.10;;;;;;5051009;28;20214;-72
2022/04/20 06:24:56;;;;;;;0.30;0.30;;;21.10;36.40;;;;;;5054639;28;20406;-73
2022/04/20 06:27:28;;;;;;;0.30;0.30;;;20.80;36.20;;;;;;5055732;28;20195;-72
2022/04/20 06:29:54;;;;;;;0.60;0.43;;;20.70;35.60;;;;;;5055074;28;20233;-73
2022/04/20 06:32:21;;;;;;;0.40;0.40;;;20.40;36.20;;;;;;5057218;28;20916;-73
2022/04/20 06:34:47;;;;;;;0.30;0.30;;;19.80;36.40;;;;;;5056822;28;20549;-72
2022/04/20 06:37:17;;;;;;;0.57;0.57;;;20.10;36.40;;;;;;5057038;28;20400;-72
2022/04/20 06:39:43;;;;;;;0.30;0.30;;;20.10;35.80;;;;;;5056705;28;20189;-72
2022/04/20 06:42:08;;;;;;;0.30;0.30;;;20.50;36.40;;;;;;5056507;28;20396;-72
2022/04/20 06:44:34;;;;;;;0.30;0.30;;;20.30;35.90;;;;;;5056683;28;20285;-73
2022/04/20 06:47:00;;;;;;;0.30;0.30;;;19.30;36.20;;;;;;5055133;28;20226;-72
2022/04/20 06:49:26;;;;;;;0.77;0.77;;;18.60;37.40;;;;;;5055480;28;20591;-72
2022/04/20 07:00:05;;;;;;;0.30;0.30;;;17.30;39.60;;;;;;5056054;28;20409;-72
2022/04/20 07:02:31;;;;;;;1.30;1.07;;;17.40;39.80;;;;;;5056242;28;20813;-72
2022/04/20 07:04:57;;;;;;;0.40;0.40;;;17.70;38.50;;;;;;5056125;28;20432;-72
2022/04/20 07:07:23;;;;;;;0.40;0.40;;;18.30;38.20;;;;;;5056061;28;20433;-72
2022/04/20 07:09:48;;;;;;;0.30;0.30;;;19.20;37.30;;;;;;5055606;28;20193;-72
2022/04/20 07:12:14;;;;;;;0.30;0.30;;;20.10;36.80;;;;;;5056280;28;20180;-72
2022/04/20 07:14:40;;;;;;;0.30;0.30;;;21.50;34.30;;;;;;5055740;28;20199;-72
2022/04/20 07:17:07;;;;;;;0.40;0.40;;;22.80;33.90;;;;;;5055807;28;20412;-72
2022/04/20 07:19:34;;;;;;;0.30;0.30;;;24.20;32.00;;;;;;5055754;28;20186;-73
2022/04/20 07:22:00;;;;;;;0.40;0.40;;;25.50;30.00;;;;;;5055421;28;20432;-72
2022/04/20 07:24:26;;;;;;;0.40;0.40;;;26.70;28.80;;;;;;5055712;28;20412;-73
2022/04/20 07:26:51;;;;;;;0.30;0.30;;;27.30;27.90;;;;;;5054475;28;20194;-73
2022/04/20 07:29:17;;;;;;;0.50;0.50;;;27.90;27.60;;;;;;5054045;28;20452;-72
2022/04/20 07:31:43;;;;;;;0.30;0.30;;;28.40;26.80;;;;;;5055415;28;20255;-73
2022/04/20 07:34:08;;;;;;;0.40;0.40;;;28.80;26.10;;;;;;5055361;28;20232;-73
2022/04/20 07:36:34;;;;;;;0.87;0.87;;;29.00;26.20;;;;;;5055062;28;20170;-73
2022/04/20 07:39:00;;;;;;;0.30;0.30;;;29.50;25.60;;;;;;5055298;28;20194;-73
2022/04/20 07:41:25;;;;;;;0.60;0.60;;;29.80;24.70;;;;;;5055132;28;20635;-72
2022/04/20 07:43:51;;;;;;;0.40;0.40;;;29.10;25.00;;;;;;5054510;28;20592;-72
2022/04/20 07:46:19;;;;;;;0.30;0.30;;;28.50;25.10;;;;;;5053250;28;20167;-72
2022/04/20 07:48:44;;;;;;;4.43;0.60;;;28.10;25.50;;;;;;5055316;28;20205;-72
2022/04/20 07:51:10;;;;;;;0.50;0.50;;;28.10;25.50;;;;;;5055008;28;20772;-73
2022/04/20 07:53:36;;;;;;;0.30;0.30;;;28.10;25.60;;;;;;5055042;28;20281;-72
2022/04/20 07:56:02;;;;;;;0.30;0.30;;;27.80;26.00;;;;;;5055105;28;20170;-73
2022/04/20 07:58:27;;;;;;;0.30;0.30;;;28.20;25.30;;;;;;5053872;28;20566;-73
2022/04/20 08:00:53;;;;;;;0.40;0.40;;;28.90;25.20;;;;;;5053862;28;20615;-74
2022/04/20 08:03:19;;;;;;;0.30;0.30;;;29.50;24.50;;;;;;5055258;28;20614;-72
2022/04/20 08:05:53;;;;;;;0.30;0.30;;;29.60;24.60;;;;;;5053664;28;20170;-73
2022/04/20 08:08:21;;;;;;;0.90;0.90;;;29.50;24.60;;;;;;5052202;28;20448;-73
2022/04/20 08:10:47;;;;;;;0.33;0.33;;;30.30;24.00;;;;;;5054407;28;20433;-73
2022/04/20 08:15:58;;;;;;;0.60;0.60;;;29.60;23.80;;;;;;5054180;28;20404;-76
2022/04/20 08:18:25;;;;;;;0.40;0.40;;;29.70;24.20;;;;;;5054355;28;20428;-73
2022/04/20 08:20:51;;;;;;;0.43;0.43;;;29.20;23.80;;;;;;5054219;28;20261;-73
2022/04/20 08:23:17;;;;;;;0.30;0.30;;;28.40;24.10;;;;;;5054475;28;20503;-72
2022/04/20 08:25:43;;;;;;;0.30;0.30;;;28.40;24.80;;;;;;5054511;28;20182;-72
2022/04/20 08:28:10;;;;;;;0.30;0.30;;;28.50;24.80;;;;;;5054374;28;20470;-73
2022/04/20 08:30:36;;;;;;;0.30;0.30;;;29.30;24.60;;;;;;5054429;28;20424;-72
2022/04/20 08:33:06;;;;;;;0.40;0.40;;;29.70;23.50;;;;;;5053109;28;20529;-72
2022/04/20 08:35:33;;;;;;;0.40;0.40;;;29.70;23.50;;;;;;5053148;28;20428;-71
2022/04/20 08:37:58;;;;;;;0.40;0.40;;;29.10;23.70;;;;;;5054086;28;20919;-72
2022/04/20 08:40:25;;;;;;;0.30;0.30;;;29.10;24.00;;;;;;5054316;28;20433;-72
2022/04/20 08:42:52;;;;;;;0.50;0.50;;;28.60;23.90;;;;;;5052912;28;20189;-72
2022/04/20 08:45:20;;;;;;;0.30;0.30;;;27.40;24.50;;;;;;5054062;28;20402;-72
2022/04/20 08:47:49;;;;;;;0.57;0.57;;;27.30;25.10;;;;;;5051789;28;20415;-72
2022/04/20 08:50:14;;;;;;;0.40;0.40;;;27.00;24.90;;;;;;5053803;28;20417;-73
2022/04/20 08:52:42;;;;;;;0.30;0.30;;;27.00;25.60;;;;;;5052598;28;20486;-72
2022/04/20 08:55:16;;;;;;;0.60;0.60;;;27.60;24.90;;;;;;5053960;28;20220;-72
2022/04/20 08:57:44;;;;;;;0.43;0.40;;;27.90;24.60;;;;;;5053891;28;20401;-72
2022/04/20 09:00:25;;;;;;;0.30;0.30;;;28.20;24.20;;;;;;5053665;28;20508;-72
2022/04/20 09:02:53;;;;;;;0.50;0.50;;;28.40;24.70;;;;;;5054000;28;20466;-72
2022/04/20 09:05:20;;;;;;;0.40;0.40;;;28.10;24.50;;;;;;5053744;28;20409;-73
2022/04/20 09:07:46;;;;;;;1.33;0.70;;;27.80;24.50;;;;;;5053762;28;20404;-72
2022/04/20 09:10:12;;;;;;;2.33;2.13;;;27.80;24.70;;;;;;5053492;28;20413;-71
2022/04/20 09:12:45;;;;;;;0.40;0.40;;;27.60;24.60;;;;;;5053710;28;20433;-71
2022/04/20 09:15:14;;;;;;;1.73;1.60;;;27.40;25.20;;;;;;5053800;28;20237;-72
2022/04/20 09:17:45;;;;;;;0.50;0.50;;;27.50;24.50;;;;;;5053381;28;20412;-71
2022/04/20 09:20:18;;;;;;;0.30;0.30;;;27.70;24.60;;;;;;5053484;28;20381;-71
2022/04/20 09:23:04;;;;;;;0.30;0.30;;;27.90;25.50;;;;;;5053458;28;20787;-72
2022/04/20 09:25:34;;;;;;;0.30;0.30;;;28.50;24.90;;;;;;5053235;28;20491;-71
2022/04/20 09:28:01;;;;;;;0.80;0.80;;;29.00;24.40;;;;;;5052049;28;21008;-71
2022/04/20 09:30:33;;;;;;;0.30;0.30;;;29.20;25.20;;;;;;5053330;28;20400;-72
2022/04/20 09:32:59;;;;;;;0.77;0.77;;;29.70;24.10;;;;;;5052165;28;20523;-71
2022/04/20 09:35:24;;;;;;;0.40;0.40;;;29.70;23.70;;;;;;5053467;28;20496;-71
2022/04/20 09:38:11;;;;;;;0.40;0.40;;;29.90;23.30;;;;;;5053401;28;20257;-71
2022/04/20 09:40:38;;;;;;;0.63;0.63;;;29.80;23.30;;;;;;5053348;28;20170;-71
2022/04/20 09:43:04;;;;;;;0.30;0.30;;;29.50;23.30;;;;;;5053369;28;20401;-72
2022/04/20 09:45:33;;;;;;;0.30;0.30;;;28.80;24.20;;;;;;5053330;28;20462;-71
2022/04/20 09:51:12;;;;;;;0.30;0.30;;;27.70;24.80;;;;;;5053243;28;20431;-72
2022/04/20 09:53:40;;;;;;;0.30;0.30;;;28.10;24.90;;;;;;5051742;28;20452;-71
2022/04/20 09:56:22;;;;;;;1.60;1.07;;;27.60;24.80;;;;;;5053125;28;20407;-70
2022/04/20 09:59:05;;;;;;;0.30;0.30;;;26.50;25.40;;;;;;5055246;28;20427;-71
2022/04/20 10:01:34;;;;;;;0.30;0.30;;;26.80;26.20;;;;;;5057012;28;20403;-71
2022/04/20 10:04:02;;;;;;;0.50;0.50;;;27.30;25.20;;;;;;5057107;28;20423;-71
2022/04/20 10:06:28;;;;;;;0.30;0.30;;;27.20;24.70;;;;;;5057196;28;20922;-71
2022/04/20 10:08:54;;;;;;;0.30;0.30;;;27.50;26.40;;;;;;5057001;28;20428;-71
2022/04/20 10:11:22;;;;;;;0.73;0.73;;;27.30;24.80;;;;;;5056869;28;20411;-71
2022/04/20 10:16:05;;;;;;;0.30;0.30;;;27.30;24.80;;;;;;5055579;28;20821;-71
2022/04/20 10:16:54;;;;;;;0.30;0.30;;;26.50;25.00;;;;;;5056885;28;20554;-70
2022/04/20 10:19:30;;;;;;;0.30;0.30;;;25.80;26.40;;;;;;5056959;28;20493;-71
2022/04/20 10:21:57;;;;;;;0.97;0.97;;;25.50;26.20;;;;;;5056607;28;20427;-70
2022/04/20 10:24:30;;;;;;;0.40;0.40;;;25.00;26.70;;;;;;5056840;28;20553;-71
2022/04/20 10:27:02;;;;;;;0.30;0.30;;;24.70;27.80;;;;;;5056762;28;20766;-70
2022/04/20 10:29:51;;;;;;;0.30;0.30;;;24.70;27.50;;;;;;5056812;28;20416;-71
2022/04/20 10:32:25;;;;;;;0.30;0.30;;;24.10;27.20;;;;;;5056899;28;20891;-70
2022/04/20 10:34:52;;;;;;;0.30;0.30;;;23.30;27.50;;;;;;5056736;28;20458;-71
2022/04/20 10:37:31;;;;;;;0.33;0.33;;;23.10;29.60;;;;;;5056519;28;20398;-71
2022/04/20 10:40:16;;;;;;;0.30;0.30;;;23.00;28.60;;;;;;5054152;28;20508;-70
2022/04/20 10:42:42;;;;;;;0.30;0.30;;;22.70;28.50;;;;;;5056310;28;20409;-69
2022/04/20 10:45:10;;;;;;;0.30;0.30;;;22.10;28.90;;;;;;5055680;28;20408;-69
2022/04/20 10:47:44;;;;;;;0.30;0.30;;;22.10;29.40;;;;;;5054391;28;20171;-69
2022/04/20 10:50:16;;;;;;;0.40;0.40;;;22.40;28.90;;;;;;5056523;28;20408;-70
2022/04/20 10:52:52;;;;;;;0.30;0.30;;;22.10;29.30;;;;;;5055125;28;20823;-70
2022/04/20 10:55:23;;;;;;;0.53;0.53;;;21.70;29.70;;;;;;5054828;28;20412;-70
2022/04/20 10:57:54;;;;;;;0.57;0.57;;;20.70;30.40;;;;;;5056215;28;20544;-70
2022/04/20 11:00:20;;;;;;;0.30;0.30;;;20.20;30.90;;;;;;5056252;28;20407;-70
2022/04/20 11:03:00;;;;;;;0.57;0.57;;;19.80;30.30;;;;;;5056046;28;20407;-70
2022/04/20 11:05:27;;;;;;;0.30;0.30;;;19.70;31.10;;;;;;5055812;28;20214;-69
2022/04/20 11:08:14;;;;;;;0.53;0.53;;;19.70;30.90;;;;;;5055733;28;20404;-70
2022/04/20 11:10:42;;;;;;;0.30;0.30;;;19.60;32.40;;;;;;5054803;28;20390;-69
2022/04/20 11:19:08;;;;;;;0.30;0.30;;;19.70;33.00;;;;;;5055800;28;20427;-71
2022/04/20 11:21:35;;;;;;;0.30;0.30;;;19.40;34.10;;;;;;5055826;28;20425;-70
2022/04/20 11:24:08;;;;;;;0.30;0.30;;;19.60;32.20;;;;;;5056205;28;20904;-70
2022/04/20 11:26:34;;;;;;;0.30;0.30;;;19.20;31.80;;;;;;5055803;28;20419;-70
2022/04/20 11:29:16;;;;;;;0.30;0.30;;;19.20;33.20;;;;;;5055824;28;20507;-69
2022/04/20 11:31:43;;;;;;;0.30;0.30;;;19.00;32.00;;;;;;5054625;28;20615;-70
2022/04/20 11:34:10;;;;;;;0.50;0.50;;;18.90;33.10;;;;;;5055901;28;20835;-69
2022/04/20 11:36:43;;;;;;;0.30;0.30;;;19.10;33.00;;;;;;5055688;28;20401;-70
2022/04/20 11:39:15;;;;;;;0.30;0.30;;;18.90;32.70;;;;;;5054171;28;20921;-70
2022/04/20 11:41:48;;;;;;;0.30;0.30;;;18.60;32.50;;;;;;5055426;28;20457;-70
2022/04/20 11:44:41;;;;;;;0.30;0.30;;;18.50;33.40;;;;;;5055855;28;20778;-70
2022/04/20 11:47:09;;;;;;;0.30;0.30;;;18.90;33.10;;;;;;5050721;28;20416;-70
2022/04/20 11:49:40;;;;;;;0.30;0.30;;;18.90;32.80;;;;;;5052227;28;20813;-70
2022/04/20 11:52:11;;;;;;;0.30;0.30;;;19.20;34.00;;;;;;5053954;28;20411;-70
2022/04/20 11:54:38;;;;;;;0.30;0.30;;;19.20;33.30;;;;;;5052798;28;20831;-70
2022/04/20 11:57:05;;;;;;;0.30;0.30;;;19.10;33.90;;;;;;5054197;28;20413;-70
2022/04/20 11:59:31;;;;;;;0.30;0.30;;;18.80;33.60;;;;;;5054047;28;20508;-70
2022/04/20 12:01:57;;;;;;;0.40;0.40;;;18.90;33.80;;;;;;5053827;28;20491;-70
2022/04/20 12:04:27;;;;;;;0.30;0.30;;;19.10;33.50;;;;;;5054658;28;20175;-70
2022/04/20 12:06:58;;;;;;;0.30;0.30;;;19.00;33.40;;;;;;5052640;28;20405;-70
2022/04/20 12:09:32;;;;;;;0.30;0.30;;;18.90;33.20;;;;;;5055162;28;20798;-70
2022/04/20 12:12:00;;;;;;;0.30;0.30;;;18.90;33.20;;;;;;5053147;28;20411;-70
2022/04/20 12:14:34;;;;;;;0.30;0.30;;;18.80;34.00;;;;;;5052694;28;20459;-70
2022/04/20 12:17:05;;;;;;;0.30;0.30;;;18.80;33.30;;;;;;5054814;28;20393;-70
2022/04/20 12:19:32;;;;;;;0.30;0.30;;;18.50;33.00;;;;;;5054424;28;20424;-70
2022/04/20 12:22:05;;;;;;;0.40;0.40;;;18.40;33.80;;;;;;5054107;28;20416;-70
2022/04/20 12:24:32;;;;;;;0.30;0.30;;;18.50;34.60;;;;;;5054386;28;20496;-70
2022/04/20 12:26:58;;;;;;;0.30;0.30;;;18.60;34.30;;;;;;5054354;28;20408;-70
2022/04/20 12:29:27;;;;;;;0.30;0.30;;;18.60;34.10;;;;;;5054275;28;20949;-71
2022/04/20 12:31:57;;;;;;;0.40;0.40;;;18.60;35.10;;;;;;5054264;28;20405;-70
2022/04/20 12:34:25;;;;;;;0.40;0.40;;;18.80;35.80;;;;;;5054274;28;20452;-70
2022/04/20 12:37:04;;;;;;;0.33;0.33;;;18.80;34.10;;;;;;5054330;28;20413;-70
2022/04/20 12:39:42;;;;;;;0.30;0.30;;;18.40;33.90;;;;;;5054147;28;20837;-70
2022/04/20 12:42:17;;;;;;;0.40;0.40;;;18.40;35.10;;;;;;5052697;28;20407;-70
2022/04/20 12:45:21;;;;;;;0.30;0.30;;;17.90;34.70;;;;;;5054212;28;20412;-70
2022/04/20 12:47:40;;;;;;;0.30;0.30;;;17.70;35.40;;;;;;5052888;28;20421;-70
2022/04/20 12:50:08;;;;;;;0.30;0.30;;;17.60;36.60;;;;;;5054220;28;20909;-69
2022/04/20 12:52:33;;;;;;;0.60;0.60;;;17.50;37.20;;;;;;5054099;28;20515;-70
2022/04/20 12:55:04;;;;;;;0.60;0.60;;;17.40;35.80;;;;;;5053840;28;20521;-70
2022/04/20 13:03:13;;;;;;;0.37;0.37;;;16.70;36.40;;;;;;5053894;28;20932;-69
2022/04/20 13:05:42;;;;;;;0.43;0.43;;;16.70;37.10;;;;;;5053985;28;20546;-69
2022/04/20 13:08:10;;;;;;;1.43;1.33;;;16.90;38.30;;;;;;5053624;28;20458;-70
2022/04/20 13:10:36;;;;;;;0.30;0.30;;;17.00;37.40;;;;;;5053556;28;20400;-69
2022/04/20 13:13:02;;;;;;;0.30;0.30;;;17.20;36.90;;;;;;5053498;28;20812;-70
2022/04/20 13:15:29;;;;;;;0.30;0.30;;;17.40;36.50;;;;;;5052345;28;20404;-70
2022/04/20 13:17:56;;;;;;;0.50;0.50;;;17.40;36.40;;;;;;5053611;28;20496;-70
2022/04/20 13:20:22;;;;;;;0.30;0.30;;;17.40;36.10;;;;;;5053384;28;20801;-70
2022/04/20 13:22:47;;;;;;;0.30;0.30;;;17.20;36.80;;;;;;5053277;28;20424;-69
2022/04/20 13:27:58;;;;;;;0.30;0.30;;;17.30;37.20;;;;;;5053349;28;20192;-70
2022/04/20 13:30:29;;;;;;;0.30;0.30;;;17.30;36.30;;;;;;5053252;28;20897;-70
2022/04/20 13:32:55;;;;;;;0.30;0.30;;;17.40;36.30;;;;;;5053013;28;20216;-70